IBS1553 LEMD-GCTS
Flight info
| Callsign | IBS1553 |
|---|---|
| Flight time | N/A |
| Altitude | 35000 |
| Route | CCS N975 ELVAR DCT GAIOS DCT TROIA DCT BEXAL UN866 KONBA |
| Aircraft | A21N/M-SDE3FGHIJ1RWXY/SDE2E3FGHIJ1RWXY |
Departure
| Time | 2026-05-07 08:07 |
|---|---|
| Airport | Adolfo Suárez Madrid–Barajas Airport (LEMD) |
Arrival
| Time | N/A |
|---|---|
| Airport | Tenerife Sur Airport (GCTS) |
| Time | Latitude | Longitude | Altitude | Speed | Heading |
|---|---|---|---|---|---|
| 2026-05-07 07:43 | 40.49080 | -3.58986 | 1986 ft | 0 kts | 269° |
| 2026-05-07 07:57 | 40.49080 | -3.58978 | 1986 ft | 4 kts | 270° |
| 2026-05-07 07:58 | 40.49078 | -3.58943 | 1986 ft | 4 kts | 283° |
| 2026-05-07 07:58 | 40.49068 | -3.58912 | 1989 ft | 4 kts | 317° |
| 2026-05-07 07:58 | 40.49053 | -3.58903 | 1986 ft | 0 kts | 360° |
| 2026-05-07 08:02 | 40.49116 | -3.58903 | 1986 ft | 11 kts | 360° |
| 2026-05-07 08:03 | 40.49194 | -3.58903 | 1986 ft | 12 kts | 360° |
| 2026-05-07 08:03 | 40.49238 | -3.58832 | 1987 ft | 13 kts | 89° |
| 2026-05-07 08:03 | 40.49241 | -3.58712 | 1987 ft | 14 kts | 88° |
| 2026-05-07 08:03 | 40.49241 | -3.58585 | 1989 ft | 14 kts | 90° |
| 2026-05-07 08:04 | 40.49243 | -3.58451 | 1986 ft | 15 kts | 89° |
| 2026-05-07 08:04 | 40.49245 | -3.58309 | 1986 ft | 16 kts | 89° |
| 2026-05-07 08:04 | 40.49244 | -3.58161 | 1986 ft | 17 kts | 92° |
| 2026-05-07 08:04 | 40.49243 | -3.58008 | 1986 ft | 17 kts | 90° |
| 2026-05-07 08:05 | 40.49242 | -3.57848 | 1986 ft | 18 kts | 90° |
| 2026-05-07 08:05 | 40.49243 | -3.57682 | 1986 ft | 18 kts | 90° |
| 2026-05-07 08:05 | 40.49294 | -3.57536 | 1988 ft | 19 kts | 46° |
| 2026-05-07 08:05 | 40.49355 | -3.57467 | 1987 ft | 0 kts | 5° |
| 2026-05-07 08:06 | 40.49391 | -3.57463 | 1989 ft | 18 kts | 3° |
| 2026-05-07 08:06 | 40.49629 | -3.57460 | 1989 ft | 63 kts | 360° |
| 2026-05-07 08:06 | 40.50319 | -3.57469 | 1986 ft | 132 kts | 359° |
| 2026-05-07 08:06 | 40.51374 | -3.57476 | 1988 ft | 177 kts | 360° |
| 2026-05-07 08:07 | 40.52730 | -3.57477 | 2262 ft | 198 kts | 360° |
| 2026-05-07 08:07 | 40.54087 | -3.57551 | 3182 ft | 193 kts | 358° |
| 2026-05-07 08:07 | 40.55452 | -3.57665 | 3900 ft | 202 kts | 357° |
| 2026-05-07 08:07 | 40.56799 | -3.58328 | 4397 ft | 217 kts | 323° |
| 2026-05-07 08:08 | 40.57733 | -3.59923 | 4903 ft | 228 kts | 292° |
| 2026-05-07 08:08 | 40.58376 | -3.61888 | 5392 ft | 241 kts | 300° |
| 2026-05-07 08:08 | 40.59502 | -3.63582 | 5866 ft | 257 kts | 320° |
| 2026-05-07 08:08 | 40.60957 | -3.64998 | 6395 ft | 269 kts | 323° |
| 2026-05-07 08:09 | 40.62501 | -3.66429 | 7102 ft | 271 kts | 323° |
| 2026-05-07 08:09 | 40.63817 | -3.68184 | 7811 ft | 270 kts | 296° |
| 2026-05-07 08:09 | 40.64307 | -3.70576 | 8270 ft | 277 kts | 266° |
| 2026-05-07 08:09 | 40.64184 | -3.73137 | 8964 ft | 280 kts | 262° |
| 2026-05-07 08:10 | 40.64021 | -3.75674 | 9736 ft | 283 kts | 262° |
| 2026-05-07 08:10 | 40.63889 | -3.78319 | 10329 ft | 293 kts | 264° |
| 2026-05-07 08:10 | 40.63785 | -3.81054 | 10634 ft | 312 kts | 264° |
| 2026-05-07 08:10 | 40.63702 | -3.84000 | 10904 ft | 331 kts | 265° |
| 2026-05-07 08:11 | 40.63625 | -3.87122 | 11156 ft | 350 kts | 266° |
| 2026-05-07 08:11 | 40.63552 | -3.90406 | 11400 ft | 367 kts | 266° |
| 2026-05-07 08:11 | 40.63480 | -3.93828 | 11827 ft | 377 kts | 266° |
| 2026-05-07 08:11 | 40.63412 | -3.97257 | 12436 ft | 380 kts | 266° |
| 2026-05-07 08:12 | 40.63349 | -4.00750 | 13076 ft | 382 kts | 267° |
| 2026-05-07 08:12 | 40.63285 | -4.04273 | 13673 ft | 385 kts | 267° |
| 2026-05-07 08:12 | 40.63223 | -4.07817 | 14142 ft | 389 kts | 267° |
| 2026-05-07 08:12 | 40.63163 | -4.11352 | 14617 ft | 392 kts | 266° |
| 2026-05-07 08:13 | 40.63092 | -4.14952 | 15150 ft | 393 kts | 266° |
| 2026-05-07 08:13 | 40.63026 | -4.18565 | 15628 ft | 394 kts | 266° |
| 2026-05-07 08:13 | 40.62959 | -4.22195 | 16081 ft | 398 kts | 266° |
| 2026-05-07 08:13 | 40.62893 | -4.25855 | 16539 ft | 400 kts | 266° |
| 2026-05-07 08:14 | 40.62821 | -4.29493 | 17004 ft | 403 kts | 266° |
| 2026-05-07 08:14 | 40.62745 | -4.33210 | 17434 ft | 405 kts | 266° |
| 2026-05-07 08:14 | 40.62671 | -4.36937 | 17883 ft | 408 kts | 266° |
| 2026-05-07 08:14 | 40.62594 | -4.40645 | 18283 ft | 411 kts | 266° |
| 2026-05-07 08:15 | 40.62515 | -4.44427 | 18652 ft | 413 kts | 266° |
| 2026-05-07 08:15 | 40.62433 | -4.48234 | 19011 ft | 416 kts | 266° |
| 2026-05-07 08:15 | 40.62262 | -4.52051 | 19365 ft | 417 kts | 261° |
| 2026-05-07 08:15 | 40.61574 | -4.55692 | 19701 ft | 415 kts | 246° |
| 2026-05-07 08:16 | 40.60216 | -4.59032 | 20047 ft | 414 kts | 233° |
| 2026-05-07 08:16 | 40.58493 | -4.62072 | 20404 ft | 415 kts | 230° |
| 2026-05-07 08:16 | 40.56691 | -4.65059 | 20764 ft | 417 kts | 230° |
| 2026-05-07 08:16 | 40.54891 | -4.68078 | 21132 ft | 419 kts | 230° |
| 2026-05-07 08:17 | 40.53131 | -4.71101 | 21488 ft | 421 kts | 231° |
| 2026-05-07 08:17 | 40.51359 | -4.74181 | 21838 ft | 424 kts | 231° |
| 2026-05-07 08:17 | 40.49577 | -4.77302 | 22197 ft | 426 kts | 231° |
| 2026-05-07 08:17 | 40.47784 | -4.80452 | 22573 ft | 428 kts | 231° |
| 2026-05-07 08:18 | 40.46015 | -4.83554 | 22956 ft | 430 kts | 231° |
| 2026-05-07 08:18 | 40.44210 | -4.86719 | 23334 ft | 433 kts | 231° |
| 2026-05-07 08:18 | 40.43011 | -4.88819 | 23566 ft | 434 kts | 231° |
| 2026-05-07 08:18 | 40.40592 | -4.93035 | 24020 ft | 436 kts | 231° |
| 2026-05-07 08:19 | 40.38762 | -4.96228 | 24388 ft | 438 kts | 231° |
| 2026-05-07 08:19 | 40.37546 | -4.98349 | 24625 ft | 439 kts | 231° |
| 2026-05-07 08:19 | 40.35699 | -5.01557 | 24978 ft | 440 kts | 231° |
| 2026-05-07 08:19 | 40.33854 | -5.04769 | 25317 ft | 441 kts | 231° |
| 2026-05-07 08:20 | 40.31998 | -5.07991 | 25646 ft | 442 kts | 231° |
| 2026-05-07 08:20 | 40.30164 | -5.11175 | 25978 ft | 443 kts | 231° |
| 2026-05-07 08:20 | 40.28309 | -5.14396 | 26368 ft | 443 kts | 231° |
| 2026-05-07 08:20 | 40.26450 | -5.17607 | 26828 ft | 441 kts | 231° |
| 2026-05-07 08:21 | 40.24598 | -5.20817 | 27252 ft | 439 kts | 231° |
| 2026-05-07 08:21 | 40.22761 | -5.24008 | 27664 ft | 438 kts | 231° |
| 2026-05-07 08:21 | 40.20919 | -5.27192 | 28060 ft | 437 kts | 231° |
| 2026-05-07 08:21 | 40.19084 | -5.30369 | 28472 ft | 436 kts | 231° |
| 2026-05-07 08:22 | 40.17274 | -5.33497 | 28877 ft | 435 kts | 231° |
| 2026-05-07 08:22 | 40.15439 | -5.36654 | 29268 ft | 434 kts | 231° |
| 2026-05-07 08:22 | 40.13615 | -5.39802 | 29660 ft | 433 kts | 231° |
| 2026-05-07 08:22 | 40.11795 | -5.42935 | 30003 ft | 433 kts | 231° |
| 2026-05-07 08:23 | 40.09966 | -5.46073 | 30298 ft | 433 kts | 231° |
| 2026-05-07 08:23 | 40.08167 | -5.49164 | 30561 ft | 433 kts | 231° |
| 2026-05-07 08:23 | 40.06339 | -5.52291 | 30842 ft | 432 kts | 231° |
| 2026-05-07 08:23 | 40.04509 | -5.55421 | 31103 ft | 432 kts | 231° |
| 2026-05-07 08:24 | 40.02682 | -5.58551 | 31358 ft | 432 kts | 231° |
| 2026-05-07 08:24 | 40.00849 | -5.61674 | 31604 ft | 433 kts | 231° |
| 2026-05-07 08:24 | 39.99046 | -5.64751 | 31855 ft | 433 kts | 232° |
| 2026-05-07 08:24 | 39.97217 | -5.67876 | 32112 ft | 433 kts | 232° |
| 2026-05-07 08:25 | 39.95384 | -5.70998 | 32339 ft | 433 kts | 232° |
| 2026-05-07 08:25 | 39.93539 | -5.74117 | 32592 ft | 432 kts | 232° |
| 2026-05-07 08:25 | 39.91704 | -5.77231 | 32811 ft | 433 kts | 232° |
| 2026-05-07 08:25 | 39.89898 | -5.80304 | 33017 ft | 433 kts | 232° |
| 2026-05-07 08:26 | 39.86227 | -5.86548 | 33424 ft | 433 kts | 233° |
| 2026-05-07 08:26 | 39.84384 | -5.89668 | 33619 ft | 433 kts | 233° |
| 2026-05-07 08:26 | 39.82546 | -5.92777 | 33801 ft | 433 kts | 233° |
| 2026-05-07 08:27 | 39.80728 | -5.95837 | 33979 ft | 433 kts | 233° |
| 2026-05-07 08:27 | 39.78890 | -5.98941 | 34131 ft | 433 kts | 233° |
| 2026-05-07 08:27 | 39.77046 | -6.02057 | 34266 ft | 433 kts | 233° |
| 2026-05-07 08:27 | 39.75199 | -6.05156 | 34385 ft | 434 kts | 233° |
| 2026-05-07 08:28 | 39.73355 | -6.08261 | 34498 ft | 434 kts | 233° |
| 2026-05-07 08:28 | 39.71515 | -6.11365 | 34635 ft | 434 kts | 234° |
| 2026-05-07 08:28 | 39.69663 | -6.14480 | 34745 ft | 434 kts | 234° |
| 2026-05-07 08:28 | 39.67817 | -6.17583 | 34858 ft | 435 kts | 234° |
| 2026-05-07 08:29 | 39.64102 | -6.23800 | 34923 ft | 435 kts | 234° |
| 2026-05-07 08:29 | 39.60407 | -6.29977 | 34902 ft | 436 kts | 234° |
| 2026-05-07 08:30 | 39.56673 | -6.36203 | 34893 ft | 436 kts | 234° |
| 2026-05-07 08:30 | 39.52941 | -6.42416 | 34895 ft | 437 kts | 235° |
| 2026-05-07 08:31 | 39.49731 | -6.48977 | 34893 ft | 433 kts | 251° |
| 2026-05-07 08:31 | 39.47579 | -6.56246 | 34908 ft | 434 kts | 246° |
| 2026-05-07 08:32 | 39.44823 | -6.63209 | 34898 ft | 435 kts | 246° |
| 2026-05-07 08:32 | 39.42075 | -6.70190 | 34902 ft | 435 kts | 247° |
| 2026-05-07 08:33 | 39.39391 | -6.77143 | 34908 ft | 434 kts | 247° |
| 2026-05-07 08:33 | 39.36695 | -6.84124 | 34899 ft | 433 kts | 247° |
| 2026-05-07 08:34 | 39.34002 | -6.91074 | 34900 ft | 433 kts | 247° |
| 2026-05-07 08:34 | 39.31290 | -6.98065 | 34905 ft | 434 kts | 248° |
| 2026-05-07 08:35 | 39.28576 | -7.05025 | 34908 ft | 434 kts | 248° |
| 2026-05-07 08:35 | 39.25873 | -7.11943 | 34904 ft | 433 kts | 248° |
| 2026-05-07 08:36 | 39.23159 | -7.18889 | 34907 ft | 433 kts | 248° |
| 2026-05-07 08:36 | 39.19822 | -7.25422 | 34916 ft | 443 kts | 234° |
| 2026-05-07 08:37 | 39.15670 | -7.31227 | 34914 ft | 444 kts | 232° |
| 2026-05-07 08:37 | 39.11470 | -7.37052 | 34920 ft | 443 kts | 233° |
| 2026-05-07 08:38 | 39.07368 | -7.42870 | 34919 ft | 441 kts | 233° |
| 2026-05-07 08:38 | 39.03236 | -7.48734 | 34918 ft | 441 kts | 234° |
| 2026-05-07 08:39 | 38.99112 | -7.54563 | 34922 ft | 440 kts | 234° |
| 2026-05-07 08:39 | 38.95021 | -7.60346 | 34934 ft | 439 kts | 234° |
| 2026-05-07 08:40 | 38.90898 | -7.66154 | 34926 ft | 438 kts | 234° |
| 2026-05-07 08:40 | 38.86776 | -7.71942 | 34921 ft | 438 kts | 234° |
| 2026-05-07 08:41 | 38.82695 | -7.77684 | 34932 ft | 437 kts | 234° |
| 2026-05-07 08:41 | 38.78580 | -7.83453 | 34933 ft | 437 kts | 235° |
| 2026-05-07 08:42 | 38.74466 | -7.89208 | 34933 ft | 436 kts | 235° |
| 2026-05-07 08:42 | 38.70381 | -7.94910 | 34934 ft | 435 kts | 235° |
| 2026-05-07 08:43 | 38.66277 | -8.00630 | 34938 ft | 435 kts | 235° |
| 2026-05-07 08:43 | 38.62195 | -8.06313 | 34940 ft | 434 kts | 236° |
| 2026-05-07 08:44 | 38.58101 | -8.12000 | 34941 ft | 433 kts | 235° |
| 2026-05-07 08:44 | 38.54022 | -8.17644 | 34945 ft | 433 kts | 236° |
| 2026-05-07 08:45 | 38.49935 | -8.23312 | 34946 ft | 432 kts | 236° |
| 2026-05-07 08:45 | 38.45885 | -8.28911 | 34945 ft | 431 kts | 236° |
| 2026-05-07 08:46 | 38.41794 | -8.34546 | 34942 ft | 430 kts | 236° |
| 2026-05-07 08:46 | 38.37715 | -8.40157 | 34944 ft | 429 kts | 236° |
| 2026-05-07 08:47 | 38.33671 | -8.45719 | 34950 ft | 429 kts | 236° |
| 2026-05-07 08:47 | 38.29603 | -8.51297 | 34951 ft | 430 kts | 235° |
| 2026-05-07 08:48 | 38.25756 | -8.57055 | 34941 ft | 424 kts | 241° |
| 2026-05-07 08:48 | 38.22241 | -8.63048 | 34958 ft | 422 kts | 241° |
| 2026-05-07 08:49 | 38.18730 | -8.68953 | 34962 ft | 421 kts | 240° |
| 2026-05-07 08:49 | 38.15170 | -8.74874 | 34956 ft | 422 kts | 240° |
| 2026-05-07 08:50 | 38.11602 | -8.80786 | 34956 ft | 420 kts | 240° |
| 2026-05-07 08:50 | 38.08060 | -8.86655 | 34954 ft | 420 kts | 240° |
| 2026-05-07 08:51 | 38.04059 | -8.92207 | 34953 ft | 427 kts | 233° |
| 2026-05-07 08:51 | 37.99844 | -8.97518 | 34952 ft | 427 kts | 233° |
| 2026-05-07 08:52 | 37.95610 | -9.02845 | 34954 ft | 427 kts | 233° |
| 2026-05-07 08:52 | 37.91391 | -9.08173 | 34957 ft | 427 kts | 233° |
| 2026-05-07 08:53 | 37.87196 | -9.13469 | 34963 ft | 426 kts | 233° |
| 2026-05-07 08:53 | 37.82979 | -9.18775 | 34961 ft | 426 kts | 233° |
| 2026-05-07 08:54 | 37.78799 | -9.24036 | 34957 ft | 425 kts | 233° |
| 2026-05-07 08:54 | 37.74600 | -9.29311 | 34960 ft | 425 kts | 233° |
| 2026-05-07 08:55 | 37.70394 | -9.34585 | 34966 ft | 424 kts | 232° |
| 2026-05-07 08:55 | 37.66223 | -9.39805 | 34969 ft | 424 kts | 232° |
| 2026-05-07 08:56 | 37.62018 | -9.45055 | 34964 ft | 423 kts | 232° |
| 2026-05-07 08:56 | 37.57818 | -9.50291 | 34967 ft | 424 kts | 232° |
| 2026-05-07 08:57 | 37.53620 | -9.55516 | 34968 ft | 424 kts | 232° |
| 2026-05-07 08:57 | 37.49465 | -9.60689 | 34973 ft | 424 kts | 232° |
| 2026-05-07 08:58 | 37.45274 | -9.65894 | 34974 ft | 422 kts | 232° |
| 2026-05-07 08:58 | 37.41089 | -9.71083 | 34972 ft | 421 kts | 232° |
| 2026-05-07 08:59 | 37.36897 | -9.76268 | 34970 ft | 420 kts | 232° |
| 2026-05-07 08:59 | 37.32737 | -9.81402 | 34976 ft | 420 kts | 232° |
| 2026-05-07 09:00 | 37.28549 | -9.86568 | 34978 ft | 420 kts | 232° |
| 2026-05-07 09:00 | 37.24358 | -9.91718 | 34979 ft | 420 kts | 232° |
| 2026-05-07 09:01 | 37.20197 | -9.96833 | 34983 ft | 420 kts | 232° |
| 2026-05-07 09:01 | 37.16019 | -10.01963 | 34984 ft | 419 kts | 231° |
| 2026-05-07 09:02 | 37.11861 | -10.07049 | 34982 ft | 418 kts | 231° |
| 2026-05-07 09:02 | 37.07697 | -10.12148 | 34984 ft | 417 kts | 231° |
| 2026-05-07 09:03 | 37.03568 | -10.17180 | 34984 ft | 417 kts | 231° |
| 2026-05-07 09:03 | 36.99405 | -10.22256 | 34986 ft | 417 kts | 231° |
| 2026-05-07 09:04 | 36.95270 | -10.27289 | 34985 ft | 416 kts | 231° |
| 2026-05-07 09:04 | 36.91141 | -10.32308 | 34983 ft | 416 kts | 231° |
| 2026-05-07 09:05 | 36.87004 | -10.37326 | 34986 ft | 414 kts | 231° |
| 2026-05-07 09:05 | 36.82893 | -10.42298 | 34992 ft | 412 kts | 231° |
| 2026-05-07 09:06 | 36.79461 | -10.46454 | 34987 ft | 412 kts | 231° |
| 2026-05-07 09:06 | 36.74659 | -10.52252 | 34990 ft | 411 kts | 231° |
| 2026-05-07 09:07 | 36.71209 | -10.56411 | 34993 ft | 411 kts | 231° |
| 2026-05-07 09:07 | 36.67111 | -10.61344 | 34992 ft | 411 kts | 231° |
| 2026-05-07 09:08 | 36.62988 | -10.66304 | 34995 ft | 412 kts | 230° |
| 2026-05-07 09:08 | 36.58890 | -10.71219 | 34993 ft | 410 kts | 231° |
| 2026-05-07 09:09 | 36.54772 | -10.76146 | 34998 ft | 410 kts | 230° |
| 2026-05-07 09:09 | 36.50688 | -10.81041 | 34999 ft | 409 kts | 230° |
| 2026-05-07 09:10 | 36.46581 | -10.85941 | 34997 ft | 409 kts | 230° |
| 2026-05-07 09:10 | 36.42478 | -10.90840 | 35001 ft | 408 kts | 230° |
| 2026-05-07 09:11 | 36.38390 | -10.95706 | 35004 ft | 408 kts | 230° |
| 2026-05-07 09:11 | 36.34290 | -11.00580 | 35007 ft | 408 kts | 230° |
| 2026-05-07 09:12 | 36.30186 | -11.05451 | 35005 ft | 408 kts | 230° |
| 2026-05-07 09:12 | 36.26107 | -11.10282 | 35004 ft | 409 kts | 230° |
| 2026-05-07 09:13 | 36.22007 | -11.15138 | 35004 ft | 407 kts | 230° |
| 2026-05-07 09:13 | 36.17892 | -11.19999 | 35008 ft | 407 kts | 230° |
| 2026-05-07 09:14 | 36.13814 | -11.24816 | 35007 ft | 406 kts | 230° |
| 2026-05-07 09:14 | 36.09709 | -11.29651 | 35007 ft | 406 kts | 230° |
| 2026-05-07 09:15 | 36.05608 | -11.34476 | 35005 ft | 408 kts | 230° |
| 2026-05-07 09:15 | 36.01517 | -11.39274 | 35004 ft | 408 kts | 230° |
| 2026-05-07 09:16 | 35.97394 | -11.44099 | 35009 ft | 410 kts | 228° |
| 2026-05-07 09:16 | 35.92803 | -11.48395 | 35010 ft | 414 kts | 221° |
| 2026-05-07 09:17 | 35.88095 | -11.52440 | 35011 ft | 414 kts | 221° |
| 2026-05-07 09:17 | 35.83368 | -11.56552 | 35014 ft | 414 kts | 222° |
| 2026-05-07 09:18 | 35.78687 | -11.60659 | 35012 ft | 414 kts | 222° |
| 2026-05-07 09:18 | 35.73987 | -11.64778 | 35014 ft | 415 kts | 222° |
| 2026-05-07 09:19 | 35.69282 | -11.68888 | 35020 ft | 415 kts | 222° |
| 2026-05-07 09:19 | 35.64572 | -11.72990 | 35010 ft | 414 kts | 222° |
| 2026-05-07 09:20 | 35.59885 | -11.77081 | 35011 ft | 415 kts | 222° |
| 2026-05-07 09:20 | 35.55161 | -11.81193 | 35021 ft | 414 kts | 222° |
| 2026-05-07 09:21 | 35.50484 | -11.85257 | 35017 ft | 414 kts | 222° |
| 2026-05-07 09:21 | 35.45763 | -11.89346 | 35014 ft | 415 kts | 222° |
| 2026-05-07 09:22 | 35.41034 | -11.93449 | 35017 ft | 414 kts | 222° |
| 2026-05-07 09:22 | 35.36341 | -11.97513 | 35018 ft | 415 kts | 221° |
| 2026-05-07 09:23 | 35.31602 | -12.01606 | 35015 ft | 415 kts | 221° |
| 2026-05-07 09:23 | 35.26901 | -12.05661 | 35014 ft | 416 kts | 221° |
| 2026-05-07 09:24 | 35.22167 | -12.09738 | 35024 ft | 415 kts | 221° |
| 2026-05-07 09:24 | 35.17426 | -12.13816 | 35021 ft | 415 kts | 221° |
| 2026-05-07 09:25 | 35.12686 | -12.17887 | 35022 ft | 415 kts | 221° |
| 2026-05-07 09:25 | 35.07969 | -12.21931 | 35023 ft | 416 kts | 221° |
| 2026-05-07 09:26 | 35.03233 | -12.25984 | 35023 ft | 415 kts | 221° |
| 2026-05-07 09:26 | 34.98523 | -12.30013 | 35024 ft | 415 kts | 221° |
| 2026-05-07 09:27 | 34.93784 | -12.34059 | 35021 ft | 416 kts | 221° |
| 2026-05-07 09:28 | 34.86667 | -12.40131 | 35022 ft | 415 kts | 221° |
| 2026-05-07 09:28 | 34.81959 | -12.44134 | 35022 ft | 415 kts | 221° |
| 2026-05-07 09:29 | 34.77224 | -12.48159 | 35025 ft | 415 kts | 221° |
| 2026-05-07 09:29 | 34.72508 | -12.52156 | 35025 ft | 415 kts | 221° |
| 2026-05-07 09:30 | 34.67771 | -12.56176 | 35027 ft | 415 kts | 221° |
| 2026-05-07 09:30 | 34.63014 | -12.60197 | 35026 ft | 415 kts | 221° |
| 2026-05-07 09:31 | 34.58266 | -12.64210 | 35026 ft | 415 kts | 221° |
| 2026-05-07 09:31 | 34.53534 | -12.68198 | 35030 ft | 415 kts | 221° |
| 2026-05-07 09:32 | 34.48780 | -12.72205 | 35034 ft | 416 kts | 220° |
| 2026-05-07 09:32 | 34.44016 | -12.76206 | 35030 ft | 417 kts | 220° |
| 2026-05-07 09:33 | 34.39249 | -12.80214 | 35039 ft | 416 kts | 220° |
| 2026-05-07 09:33 | 34.34518 | -12.84185 | 35039 ft | 416 kts | 220° |